createdAt,value
2023-11-06T00:01:35.195Z,9.93
2023-11-06T00:06:38.240Z,12.30
2023-11-06T00:11:42.178Z,10.45
2023-11-06T00:16:44.951Z,12.40
2023-11-06T00:21:47.574Z,16.73
2023-11-06T00:26:50.194Z,15.10
2023-11-06T00:31:52.808Z,19.48
2023-11-06T00:36:55.620Z,13.00
2023-11-06T00:41:58.327Z,11.18
2023-11-06T00:47:01.004Z,10.40
2023-11-06T00:52:04.267Z,16.40
2023-11-06T00:57:06.994Z,13.60
2023-11-06T01:02:09.639Z,11.95
2023-11-06T01:07:12.332Z,14.52
2023-11-06T01:12:15.064Z,18.55
2023-11-06T01:17:17.837Z,14.90
2023-11-06T01:22:31.101Z,14.18
2023-11-06T01:27:41.894Z,14.68
2023-11-06T01:32:44.781Z,15.38
2023-11-06T01:37:48.485Z,15.88
2023-11-06T01:42:53.887Z,15.73
2023-11-06T01:47:56.757Z,16.15
2023-11-06T01:53:06.058Z,16.10
2023-11-06T01:58:08.753Z,13.30
2023-11-06T02:03:12.264Z,17.30
2023-11-06T02:08:17.679Z,15.85
2023-11-06T02:13:21.446Z,20.05
2023-11-06T02:18:24.200Z,16.25
2023-11-06T02:23:27.739Z,18.60
2023-11-06T02:28:30.620Z,20.75
2023-11-06T02:33:33.327Z,20.60
2023-11-06T02:38:37.562Z,14.75
2023-11-06T02:43:40.193Z,16.40
2023-11-06T02:48:43.321Z,15.07
2023-11-06T02:53:46.006Z,15.38
2023-11-06T02:58:48.715Z,13.00
2023-11-06T03:03:52.206Z,16.23
2023-11-06T03:08:55.720Z,11.48
2023-11-06T03:13:58.310Z,11.73
2023-11-06T03:19:00.996Z,13.35
2023-11-06T03:24:03.721Z,19.17
2023-11-06T03:29:06.551Z,15.85
2023-11-06T03:34:09.317Z,14.95
2023-11-06T03:39:11.950Z,12.35
2023-11-06T03:44:15.400Z,17.05
2023-11-06T03:49:18.124Z,14.60
2023-11-06T03:54:21.341Z,21.33
2023-11-06T03:59:23.924Z,22.80
2023-11-06T04:04:26.810Z,21.02
2023-11-06T04:09:29.445Z,23.40
2023-11-06T04:14:32.133Z,16.70
2023-11-06T04:19:34.880Z,19.10
2023-11-06T04:24:37.531Z,25.10
2023-11-06T04:29:40.103Z,22.23
2023-11-06T04:34:43.015Z,30.35
2023-11-06T04:39:45.635Z,22.67
2023-11-06T04:44:48.333Z,17.90
2023-11-06T04:49:51.105Z,23.33
2023-11-06T04:54:53.713Z,17.90
2023-11-06T04:59:56.473Z,26.70
2023-11-06T05:04:59.236Z,21.67
2023-11-06T05:10:02.360Z,22.35
2023-11-06T05:15:07.342Z,29.88
2023-11-06T05:20:11.435Z,29.08
2023-11-06T05:25:14.245Z,33.88
2023-11-06T05:30:16.912Z,22.65
2023-11-06T05:35:19.654Z,43.40
2023-11-06T05:40:22.410Z,70.60
2023-11-06T05:45:25.031Z,24.63
2023-11-06T05:50:27.717Z,48.67
2023-11-06T05:55:30.318Z,53.38
2023-11-06T06:00:32.962Z,48.85
2023-11-06T06:05:35.940Z,39.30
2023-11-06T06:10:38.754Z,28.80
2023-11-06T06:15:41.390Z,44.80
2023-11-06T06:20:44.045Z,27.50
2023-11-06T06:25:46.956Z,28.77
2023-11-06T06:30:50.050Z,36.08
2023-11-06T06:35:52.660Z,33.58
2023-11-06T06:40:55.721Z,43.30
2023-11-06T06:45:58.338Z,38.95
2023-11-06T06:51:02.788Z,30.48
2023-11-06T06:56:05.899Z,31.25
2023-11-06T07:01:09.680Z,35.90
2023-11-06T07:06:12.871Z,18.52
2023-11-06T07:11:15.651Z,19.65
2023-11-06T07:16:18.278Z,27.90
2023-11-06T07:21:20.878Z,16.40
2023-11-06T07:26:23.978Z,24.88
2023-11-06T07:31:26.656Z,28.23
2023-11-06T07:36:29.238Z,26.35
2023-11-06T07:41:31.921Z,20.25
2023-11-06T07:46:34.518Z,22.73
2023-11-06T07:51:37.103Z,24.63
2023-11-06T07:56:39.755Z,16.00
2023-11-06T08:01:42.613Z,14.77
2023-11-06T08:06:45.278Z,19.05
2023-11-06T08:11:50.243Z,24.80
2023-11-06T08:16:53.695Z,19.60
2023-11-06T08:21:58.945Z,27.02
2023-11-06T08:27:03.340Z,20.42
2023-11-06T08:32:06.486Z,19.13
2023-11-06T08:37:12.433Z,11.10
2023-11-06T08:42:16.598Z,9.18
2023-11-06T08:47:20.639Z,17.60
2023-11-06T08:52:23.486Z,19.40
2023-11-06T08:57:26.263Z,12.80
2023-11-06T09:02:29.219Z,22.55
2023-11-06T09:07:32.211Z,11.68
2023-11-06T09:12:35.038Z,15.77
2023-11-06T09:17:37.696Z,14.32
2023-11-06T09:22:42.116Z,17.15
2023-11-06T09:27:47.321Z,19.77
2023-11-06T09:32:52.345Z,14.82
2023-11-06T09:37:55.013Z,15.48
2023-11-06T09:42:57.852Z,13.05
2023-11-06T09:48:03.885Z,11.55
2023-11-06T09:53:06.932Z,14.00
2023-11-06T09:58:12.385Z,13.63
2023-11-06T10:03:16.198Z,16.85
2023-11-06T10:08:32.694Z,13.23
2023-11-06T10:13:55.437Z,12.27
2023-11-06T10:19:17.802Z,9.07
2023-11-06T10:24:20.559Z,11.73
2023-11-06T10:29:23.267Z,12.45
2023-11-06T10:34:28.572Z,17.17
2023-11-06T10:39:35.025Z,14.60
2023-11-06T10:44:39.200Z,12.32
2023-11-06T10:49:51.672Z,11.57
2023-11-06T10:54:57.837Z,14.60
2023-11-06T11:00:12.443Z,9.65
2023-11-06T11:05:34.959Z,12.18
2023-11-06T11:10:39.577Z,12.05
2023-11-06T11:15:44.305Z,12.73
2023-11-06T11:20:54.260Z,10.95
2023-11-06T11:26:05.688Z,11.70
2023-11-06T11:31:49.067Z,14.43
2023-11-06T11:36:51.828Z,23.75
2023-11-06T11:42:00.598Z,26.85
2023-11-06T11:47:05.608Z,27.08
2023-11-06T11:52:09.947Z,15.43
2023-11-06T11:57:13.022Z,12.38
2023-11-06T12:02:30.781Z,11.75
2023-11-06T12:07:41.858Z,7.40
2023-11-06T12:12:44.537Z,11.57
2023-11-06T12:17:47.518Z,13.18
2023-11-06T12:22:53.660Z,12.10
2023-11-06T12:28:02.948Z,15.48
2023-11-06T12:33:19.152Z,15.40
2023-11-06T12:38:37.181Z,19.15
2023-11-06T12:43:40.382Z,18.92
2023-11-06T13:59:30.235Z,23.45
2023-11-06T14:04:36.821Z,28.85
2023-11-06T14:09:48.178Z,22.45
2023-11-06T14:14:51.670Z,18.63
2023-11-06T14:19:54.376Z,17.58
2023-11-06T14:24:57.112Z,25.73
2023-11-06T14:30:01.109Z,23.00
2023-11-06T14:35:05.029Z,21.80
2023-11-06T14:40:14.930Z,25.45
2023-11-06T14:45:19.433Z,29.10
2023-11-06T14:55:25.206Z,19.42
2023-11-06T15:00:28.438Z,20.85
2023-11-06T15:05:33.077Z,23.90
2023-11-06T15:10:36.671Z,26.23
2023-11-06T15:15:41.464Z,24.30
2023-11-06T15:20:45.535Z,29.98
2023-11-06T15:25:48.981Z,26.17
2023-11-06T15:30:52.928Z,24.20
2023-11-06T15:35:56.662Z,23.98
2023-11-06T15:41:05.964Z,24.45
2023-11-06T15:46:14.382Z,26.83
2023-11-06T15:51:24.023Z,33.65
2023-11-06T15:56:26.896Z,27.65
2023-11-06T16:01:31.313Z,31.83
2023-11-06T16:06:35.606Z,29.63
2023-11-06T16:11:42.213Z,27.48
2023-11-06T16:16:46.096Z,33.05
2023-11-06T16:21:49.722Z,28.63
2023-11-06T16:26:52.465Z,22.77
2023-11-06T16:31:57.744Z,32.47
2023-11-06T16:37:36.278Z,31.77
2023-11-06T16:42:39.759Z,27.73
2023-11-06T16:47:43.175Z,26.33
2023-11-06T16:52:46.211Z,30.85
2023-11-06T16:57:49.841Z,37.35
2023-11-06T17:02:53.825Z,30.15
2023-11-06T17:07:58.721Z,31.08
2023-11-06T17:13:01.408Z,27.30
2023-11-06T17:18:06.258Z,32.55
2023-11-06T17:23:09.027Z,33.97
2023-11-06T17:28:11.611Z,31.98
2023-11-06T17:33:14.322Z,25.75
2023-11-06T17:38:17.411Z,27.27
2023-11-06T17:43:20.442Z,36.75
2023-11-06T17:48:23.487Z,29.60
2023-11-06T17:53:26.925Z,25.17
2023-11-06T17:58:30.171Z,34.53
2023-11-06T18:03:33.153Z,31.30
2023-11-06T18:08:38.256Z,32.85
2023-11-06T18:13:45.139Z,30.60
2023-11-06T18:18:48.480Z,34.92
2023-11-06T18:23:51.196Z,31.95
2023-11-06T18:28:53.836Z,38.08
2023-11-06T18:33:56.720Z,35.72
2023-11-06T18:38:59.613Z,29.13
2023-11-06T18:44:02.276Z,35.35
2023-11-06T18:49:06.286Z,33.95
2023-11-06T18:54:08.955Z,34.78
2023-11-06T18:59:11.954Z,33.55
2023-11-06T19:04:14.607Z,33.25
2023-11-06T19:09:18.851Z,30.65
2023-11-06T19:14:22.270Z,24.70
2023-11-06T19:19:25.611Z,40.65
2023-11-06T19:24:28.194Z,34.78
2023-11-06T19:29:31.000Z,40.25
2023-11-06T19:34:33.779Z,25.13
2023-11-06T19:39:36.822Z,31.55
2023-11-06T19:44:39.456Z,32.22
2023-11-06T19:49:42.056Z,29.95
2023-11-06T19:54:44.910Z,41.63
2023-11-06T19:59:58.039Z,29.40
2023-11-06T20:05:16.519Z,29.15
2023-11-06T20:10:19.614Z,27.20
2023-11-06T20:15:22.301Z,33.53
2023-11-06T20:20:24.883Z,31.77
2023-11-06T20:25:27.944Z,24.60
2023-11-06T20:30:30.600Z,33.70
2023-11-06T20:35:33.326Z,28.38
2023-11-06T20:40:36.076Z,33.60
2023-11-06T20:45:38.744Z,27.02
2023-11-06T20:50:41.371Z,27.05
2023-11-06T20:55:44.076Z,29.63
2023-11-06T21:00:48.811Z,27.58
2023-11-06T21:05:51.384Z,35.20
2023-11-06T21:10:54.015Z,37.60
2023-11-06T21:15:57.552Z,29.80
2023-11-06T21:21:00.202Z,31.08
2023-11-06T21:26:03.785Z,29.90
2023-11-06T21:31:06.346Z,30.38
2023-11-06T21:36:09.459Z,41.83
2023-11-06T21:41:12.038Z,29.77
2023-11-06T21:46:14.814Z,39.53
2023-11-06T21:51:17.696Z,27.13
2023-11-06T21:56:20.419Z,29.52
2023-11-06T22:01:24.031Z,34.65
2023-11-06T22:06:26.905Z,30.33
2023-11-06T22:11:29.581Z,37.88
2023-11-06T22:16:32.237Z,32.92
2023-11-06T22:21:34.802Z,39.83
2023-11-06T22:26:37.509Z,36.03
2023-11-06T22:31:44.441Z,33.25
2023-11-06T22:36:47.281Z,29.75
2023-11-06T22:41:49.977Z,37.03
2023-11-06T22:46:53.062Z,29.98
2023-11-06T22:51:56.391Z,29.60
2023-11-06T22:56:59.018Z,33.67
2023-11-06T23:02:03.643Z,25.70
2023-11-06T23:07:06.708Z,28.63
2023-11-06T23:12:09.810Z,24.42
2023-11-06T23:17:12.570Z,23.55
2023-11-06T23:22:16.170Z,27.30
2023-11-06T23:27:21.200Z,29.42
2023-11-06T23:32:23.867Z,20.20
2023-11-06T23:37:26.461Z,16.98
2023-11-06T23:42:29.632Z,14.95
2023-11-06T23:47:32.481Z,12.52
2023-11-06T23:52:35.284Z,11.82
2023-11-06T23:57:38.089Z,10.75
